createdAt,value
2022-11-01T00:01:46.922Z,28.08
2022-11-01T00:04:13.610Z,19.75
2022-11-01T00:06:40.266Z,22.65
2022-11-01T00:09:07.611Z,22.10
2022-11-01T00:11:34.190Z,21.08
2022-11-01T00:14:00.814Z,32.97
2022-11-01T00:16:27.832Z,20.13
2022-11-01T00:18:54.758Z,24.80
2022-11-01T00:21:21.576Z,23.83
2022-11-01T00:23:48.242Z,20.55
2022-11-01T00:26:20.688Z,22.38
2022-11-01T00:28:48.046Z,16.85
2022-11-01T00:31:16.492Z,17.08
2022-11-01T00:33:43.292Z,22.58
2022-11-01T00:36:10.332Z,32.03
2022-11-01T00:38:36.960Z,19.77
2022-11-01T00:41:04.437Z,24.27
2022-11-01T00:43:31.891Z,42.67
2022-11-01T00:45:59.045Z,19.33
2022-11-01T00:48:25.662Z,20.63
2022-11-01T00:50:52.615Z,69.32
2022-11-01T00:53:19.345Z,19.60
2022-11-01T00:55:46.106Z,19.73
2022-11-01T00:58:12.830Z,29.95
2022-11-01T01:00:39.536Z,24.13
2022-11-01T01:03:06.483Z,19.40
2022-11-01T01:05:34.410Z,25.13
2022-11-01T01:08:01.367Z,42.65
2022-11-01T01:10:28.198Z,31.45
2022-11-01T01:12:54.757Z,18.48
2022-11-01T01:15:21.407Z,21.00
2022-11-01T01:17:48.083Z,21.48
2022-11-01T01:20:14.784Z,19.70
2022-11-01T01:22:42.487Z,24.35
2022-11-01T01:25:10.519Z,22.40
2022-11-01T01:27:37.296Z,24.75
2022-11-01T01:30:07.567Z,18.90
2022-11-01T01:32:34.471Z,25.77
2022-11-01T01:35:01.099Z,24.75
2022-11-01T01:37:27.741Z,16.95
2022-11-01T01:39:54.533Z,18.27
2022-11-01T01:42:31.060Z,18.92
2022-11-01T01:44:57.514Z,19.02
2022-11-01T01:47:30.192Z,18.52
2022-11-01T01:50:00.716Z,21.33
2022-11-01T01:52:30.984Z,19.45
2022-11-01T01:55:00.351Z,20.65
2022-11-01T01:57:27.000Z,17.10
2022-11-01T01:59:53.795Z,17.67
2022-11-01T02:02:21.557Z,19.45
2022-11-01T02:04:54.010Z,22.65
2022-11-01T02:07:20.656Z,20.23
2022-11-01T02:09:47.861Z,18.13
2022-11-01T02:12:14.866Z,47.70
2022-11-01T02:14:43.900Z,19.10
2022-11-01T02:17:28.188Z,25.33
2022-11-01T02:20:13.114Z,17.73
2022-11-01T02:23:15.617Z,21.60
2022-11-01T02:26:05.844Z,18.05
2022-11-01T02:29:01.780Z,19.25
2022-11-01T02:31:52.822Z,25.00
2022-11-01T02:34:29.796Z,21.85
2022-11-01T02:37:01.762Z,20.00
2022-11-01T02:39:34.117Z,26.75
2022-11-01T02:42:15.046Z,42.17
2022-11-01T02:44:53.253Z,44.60
2022-11-01T02:47:20.283Z,35.08
2022-11-01T02:49:51.483Z,36.10
2022-11-01T02:52:22.154Z,25.67
2022-11-01T02:54:57.326Z,78.03
2022-11-01T02:57:28.851Z,37.60
2022-11-01T03:00:04.357Z,87.82
2022-11-01T03:02:44.174Z,94.72
2022-11-01T03:05:26.798Z,49.65
2022-11-01T03:08:00.103Z,65.25
2022-11-01T03:10:37.628Z,37.30
2022-11-01T03:13:32.405Z,41.20
2022-11-01T03:16:23.002Z,54.75
2022-11-01T03:19:06.213Z,31.45
2022-11-01T03:21:40.975Z,40.58
2022-11-01T03:24:27.292Z,42.65
2022-11-01T03:27:02.410Z,39.72
2022-11-01T03:29:31.951Z,41.55
2022-11-01T03:32:01.074Z,37.47
2022-11-01T03:34:27.644Z,33.25
2022-11-01T03:37:00.946Z,34.47
2022-11-01T03:39:33.894Z,35.38
2022-11-01T03:42:07.736Z,41.97
2022-11-01T03:44:41.008Z,37.25
2022-11-01T03:47:08.177Z,33.97
2022-11-01T03:49:34.804Z,34.70
2022-11-01T03:52:01.338Z,31.77
2022-11-01T03:54:29.109Z,39.55
2022-11-01T03:56:56.270Z,28.33
2022-11-01T03:59:26.172Z,38.95
2022-11-01T04:01:52.927Z,32.92
2022-11-01T04:04:19.668Z,31.13
2022-11-01T04:06:46.217Z,38.47
2022-11-01T04:09:12.780Z,42.65
2022-11-01T04:11:39.364Z,39.70
2022-11-01T04:14:24.701Z,34.72
2022-11-01T04:17:09.700Z,36.67
2022-11-01T04:19:55.141Z,32.05
2022-11-01T04:22:24.497Z,31.73
2022-11-01T04:24:51.381Z,30.70
2022-11-01T04:27:18.129Z,32.45
2022-11-01T04:29:44.737Z,30.45
2022-11-01T04:32:11.292Z,28.20
2022-11-01T04:34:43.742Z,36.53
2022-11-01T04:37:12.075Z,32.22
2022-11-01T04:39:38.622Z,30.27
2022-11-01T04:42:05.412Z,28.45
2022-11-01T04:44:31.975Z,34.60
2022-11-01T04:46:58.592Z,36.90
2022-11-01T04:49:25.162Z,29.55
2022-11-01T04:51:51.688Z,31.50
2022-11-01T04:54:18.340Z,39.72
2022-11-01T04:56:44.888Z,35.60
2022-11-01T04:59:11.424Z,38.50
2022-11-01T05:01:38.172Z,30.98
2022-11-01T05:04:04.932Z,40.42
2022-11-01T05:06:32.079Z,35.35
2022-11-01T05:08:58.633Z,33.33
2022-11-01T05:11:25.821Z,28.75
2022-11-01T05:13:52.611Z,28.55
2022-11-01T05:16:20.763Z,24.60
2022-11-01T05:18:48.862Z,24.27
2022-11-01T05:21:15.512Z,27.67
2022-11-01T05:23:42.049Z,24.52
2022-11-01T05:26:08.689Z,26.08
2022-11-01T05:28:35.301Z,24.60
2022-11-01T05:31:01.897Z,28.00
2022-11-01T05:33:28.423Z,25.67
2022-11-01T05:35:55.004Z,27.63
2022-11-01T05:38:21.690Z,25.77
2022-11-01T05:40:48.674Z,22.38
2022-11-01T05:43:15.411Z,28.00
2022-11-01T05:45:42.005Z,33.05
2022-11-01T05:48:09.238Z,22.88
2022-11-01T05:50:35.801Z,20.73
2022-11-01T05:53:07.431Z,28.58
2022-11-01T05:55:34.779Z,23.83
2022-11-01T05:58:01.493Z,23.02
2022-11-01T06:00:28.123Z,20.67
2022-11-01T06:03:00.870Z,21.50
2022-11-01T06:05:28.319Z,26.98
2022-11-01T06:07:55.214Z,23.90
2022-11-01T06:10:22.281Z,24.33
2022-11-01T06:12:49.137Z,22.60
2022-11-01T06:15:15.688Z,22.42
2022-11-01T06:17:42.397Z,21.13
2022-11-01T06:20:09.221Z,26.42
2022-11-01T06:22:36.634Z,19.90
2022-11-01T06:25:05.681Z,23.35
2022-11-01T06:27:32.629Z,22.50
2022-11-01T06:29:59.206Z,16.95
2022-11-01T06:32:25.771Z,16.52
2022-11-01T06:34:52.358Z,19.88
2022-11-01T06:37:18.968Z,19.75
2022-11-01T06:39:45.567Z,13.13
2022-11-01T06:42:12.154Z,13.85
2022-11-01T06:44:38.685Z,23.38
2022-11-01T06:47:05.282Z,12.85
2022-11-01T06:49:31.898Z,15.35
2022-11-01T06:51:58.711Z,12.98
2022-11-01T06:54:25.730Z,16.88
2022-11-01T06:56:52.335Z,17.63
2022-11-01T06:59:18.986Z,11.55
2022-11-01T07:01:45.739Z,17.02
2022-11-01T07:06:44.606Z,12.48
2022-11-01T07:09:11.317Z,10.85
2022-11-01T07:11:38.550Z,9.88
2022-11-01T07:14:05.540Z,18.17
2022-11-01T07:16:32.855Z,11.80
2022-11-01T07:18:59.445Z,11.80
2022-11-01T07:21:26.320Z,12.35
2022-11-01T07:23:54.072Z,14.18
2022-11-01T07:26:21.554Z,14.77
2022-11-01T07:28:48.182Z,15.48
2022-11-01T07:31:14.768Z,10.30
2022-11-01T07:33:41.606Z,9.63
2022-11-01T07:36:08.637Z,12.98
2022-11-01T07:38:35.192Z,12.23
2022-11-01T07:41:04.338Z,12.15
2022-11-01T07:43:31.041Z,14.68
2022-11-01T07:46:00.993Z,9.27
2022-11-01T07:48:27.750Z,10.70
2022-11-01T07:50:56.951Z,12.00
2022-11-01T07:53:23.941Z,11.52
2022-11-01T07:55:50.698Z,13.07
2022-11-01T07:58:17.698Z,13.60
2022-11-01T08:00:45.465Z,16.70
2022-11-01T08:03:15.281Z,16.48
2022-11-01T08:08:09.488Z,7.18
2022-11-01T08:10:37.118Z,11.77
2022-11-01T08:13:16.782Z,9.13
2022-11-01T08:18:10.715Z,10.10
2022-11-01T08:20:37.830Z,8.90
2022-11-01T08:23:05.337Z,13.25
2022-11-01T08:25:32.205Z,11.23
2022-11-01T08:28:04.301Z,14.45
2022-11-01T08:30:31.094Z,7.00
2022-11-01T08:32:59.745Z,9.00
2022-11-01T08:35:26.798Z,16.13
2022-11-01T08:37:54.077Z,9.80
2022-11-01T08:40:21.750Z,9.75
2022-11-01T08:42:48.925Z,8.23
2022-11-01T08:45:16.181Z,8.40
2022-11-01T08:47:43.330Z,7.68
2022-11-01T08:50:12.817Z,7.22
2022-11-01T08:52:40.562Z,9.45
2022-11-01T08:55:09.401Z,7.45
2022-11-01T08:57:36.002Z,8.47
2022-11-01T09:00:04.369Z,6.55
2022-11-01T09:02:31.265Z,10.57
2022-11-01T09:04:57.947Z,12.65
2022-11-01T09:07:24.654Z,10.23
2022-11-01T09:09:51.222Z,7.68
2022-11-01T09:12:23.411Z,12.25
2022-11-01T09:14:51.099Z,6.35
2022-11-01T09:17:17.621Z,10.18
2022-11-01T09:19:44.154Z,8.85
2022-11-01T09:22:10.690Z,10.95
2022-11-01T09:24:37.281Z,19.58
2022-11-01T09:27:03.855Z,12.90
2022-11-01T09:29:30.469Z,13.32
2022-11-01T09:31:57.093Z,13.50
2022-11-01T09:34:23.896Z,6.30
2022-11-01T09:36:50.509Z,6.38
2022-11-01T09:39:20.255Z,13.40
2022-11-01T09:44:21.509Z,7.15
2022-11-01T09:47:02.737Z,7.45
2022-11-01T09:49:33.714Z,7.65
2022-11-01T09:52:00.777Z,9.95
2022-11-01T09:54:28.353Z,5.47
2022-11-01T09:57:03.234Z,6.88
2022-11-01T09:59:53.201Z,3.20
2022-11-01T10:02:41.346Z,6.78
2022-11-01T10:05:35.920Z,5.25
2022-11-01T10:08:08.522Z,4.53
2022-11-01T10:10:36.791Z,2.25
2022-11-01T10:13:09.389Z,6.72
2022-11-01T10:15:36.032Z,7.05
2022-11-01T10:18:28.104Z,2.50
2022-11-01T10:21:01.702Z,4.82
2022-11-01T10:23:35.362Z,3.83
2022-11-01T10:26:04.102Z,6.00
2022-11-01T10:28:34.503Z,3.60
2022-11-01T10:31:14.186Z,1.45
2022-11-01T10:36:21.297Z,6.75
2022-11-01T10:39:54.108Z,6.93
2022-11-01T10:42:20.832Z,1.42
2022-11-01T10:44:55.387Z,3.13
2022-11-01T10:47:24.824Z,5.85
2022-11-01T10:50:05.943Z,3.28
2022-11-01T10:52:49.769Z,7.88
2022-11-01T10:55:24.693Z,2.30
2022-11-01T10:58:03.594Z,5.70
2022-11-01T11:00:34.681Z,4.72
2022-11-01T11:03:16.785Z,6.25
2022-11-01T11:05:44.020Z,2.17
2022-11-01T11:08:17.094Z,5.75
2022-11-01T11:10:45.187Z,5.43
2022-11-01T11:13:15.382Z,12.75
2022-11-01T11:16:05.399Z,4.10
2022-11-01T11:18:36.593Z,4.32
2022-11-01T11:21:08.647Z,2.17
2022-11-01T11:23:44.206Z,4.78
2022-11-01T11:26:19.620Z,2.25
2022-11-01T11:28:51.907Z,1.30
2022-11-01T11:31:23.229Z,6.95
2022-11-01T11:34:04.682Z,123.63
2022-11-01T11:36:37.751Z,44.28
2022-11-01T11:39:05.239Z,4.43
2022-11-01T11:41:39.260Z,6.78
2022-11-01T11:44:38.437Z,9.73
2022-11-01T11:49:32.357Z,6.43
2022-11-01T11:51:59.373Z,3.22
2022-11-01T11:54:38.132Z,3.15
2022-11-01T11:57:17.767Z,4.95
2022-11-01T12:02:26.556Z,1.27
2022-11-01T12:04:56.928Z,53.45
2022-11-01T12:07:37.785Z,29.92
2022-11-01T12:10:06.862Z,7.85
2022-11-01T12:12:40.553Z,4.78
2022-11-01T12:15:28.716Z,0.82
2022-11-01T12:17:56.610Z,10.52
2022-11-01T12:20:25.767Z,8.60
2022-11-01T12:23:06.993Z,6.05
2022-11-01T12:25:35.802Z,12.38
2022-11-01T12:28:09.242Z,5.10
2022-11-01T12:30:37.863Z,4.85
2022-11-01T12:33:21.727Z,2.88
2022-11-01T12:35:48.948Z,4.78
2022-11-01T12:38:27.747Z,2.03
2022-11-01T12:40:55.130Z,2.40
2022-11-01T12:43:56.297Z,1.02
2022-11-01T12:46:33.669Z,3.55
2022-11-01T12:49:07.952Z,7.80
2022-11-01T12:51:44.351Z,4.20
2022-11-01T12:54:20.180Z,6.45
2022-11-01T12:56:46.786Z,2.55
2022-11-01T12:59:18.385Z,4.97
2022-11-01T13:02:19.624Z,3.38
2022-11-01T13:04:56.529Z,4.10
2022-11-01T13:07:55.837Z,3.00
2022-11-01T13:10:30.163Z,1.83
2022-11-01T13:13:30.307Z,6.40
2022-11-01T13:16:08.986Z,80.65
2022-11-01T13:18:47.898Z,9.17
2022-11-01T13:21:33.020Z,6.97
2022-11-01T13:24:20.512Z,10.82
2022-11-01T13:26:55.312Z,5.00
2022-11-01T13:29:37.043Z,6.88
2022-11-01T13:32:30.186Z,3.83
2022-11-01T13:35:23.230Z,4.57
2022-11-01T13:38:20.312Z,7.20
2022-11-01T13:41:20.785Z,6.20
2022-11-01T13:43:54.866Z,25.17
2022-11-01T13:46:21.394Z,7.60
2022-11-01T13:49:09.607Z,7.53
2022-11-01T13:51:56.650Z,7.07
2022-11-01T13:54:32.474Z,7.95
2022-11-01T13:57:09.616Z,8.60
2022-11-01T13:59:45.250Z,1.38
2022-11-01T14:02:23.965Z,8.60
2022-11-01T14:05:04.029Z,2.95
2022-11-01T14:07:37.027Z,7.60
2022-11-01T14:10:19.078Z,7.28
2022-11-01T14:13:06.942Z,3.75
2022-11-01T14:15:39.230Z,5.80
2022-11-01T14:18:11.305Z,3.85
2022-11-01T14:20:43.727Z,8.10
2022-11-01T14:23:42.865Z,4.60
2022-11-01T14:26:18.429Z,5.60
2022-11-01T14:28:46.802Z,44.13
2022-11-01T14:31:15.046Z,6.55
2022-11-01T14:33:42.969Z,4.18
2022-11-01T14:36:13.075Z,6.82
2022-11-01T14:39:21.570Z,4.60
2022-11-01T14:41:55.217Z,9.57
2022-11-01T14:44:34.844Z,8.98
2022-11-01T14:47:10.898Z,13.55
2022-11-01T14:49:43.542Z,13.10
2022-11-01T14:52:32.197Z,8.93
2022-11-01T14:55:18.541Z,2.78
2022-11-01T14:57:48.472Z,6.50
2022-11-01T15:00:33.366Z,8.63
2022-11-01T15:03:01.562Z,4.28
2022-11-01T15:05:28.635Z,4.32
2022-11-01T15:07:59.244Z,2.53
2022-11-01T15:10:26.766Z,6.43
2022-11-01T15:12:55.286Z,7.60
2022-11-01T15:15:24.969Z,6.95
2022-11-01T15:20:28.992Z,5.78
2022-11-01T15:22:57.851Z,6.65
2022-11-01T15:25:26.663Z,5.50
2022-11-01T15:27:55.815Z,9.88
2022-11-01T15:30:22.418Z,10.07
2022-11-01T15:33:12.647Z,6.97
2022-11-01T15:35:39.851Z,6.05
2022-11-01T15:38:20.747Z,8.05
2022-11-01T15:40:48.865Z,6.45
2022-11-01T15:43:22.057Z,7.03
2022-11-01T15:46:01.572Z,8.23
2022-11-01T15:48:35.698Z,6.07
2022-11-01T15:51:07.088Z,3.75
2022-11-01T15:53:36.687Z,3.33
2022-11-01T15:56:18.067Z,8.23
2022-11-01T16:01:26.430Z,5.05
2022-11-01T16:04:11.181Z,3.95
2022-11-01T16:06:56.598Z,7.10
2022-11-01T16:09:30.733Z,9.80
2022-11-01T16:12:00.349Z,8.13
2022-11-01T16:14:33.570Z,6.28
2022-11-01T16:17:06.408Z,8.65
2022-11-01T16:19:40.093Z,8.55
2022-11-01T16:22:27.995Z,4.03
2022-11-01T16:25:13.703Z,17.83
2022-11-01T16:27:58.902Z,5.80
2022-11-01T16:30:54.787Z,28.05
2022-11-01T16:33:44.181Z,10.05
2022-11-01T16:36:20.135Z,7.85
2022-11-01T16:38:49.238Z,11.35
2022-11-01T16:41:39.779Z,11.48
2022-11-01T16:44:16.573Z,7.55
2022-11-01T16:46:43.419Z,8.02
2022-11-01T16:49:26.198Z,7.70
2022-11-01T16:51:56.368Z,12.63
2022-11-01T16:54:25.135Z,11.95
2022-11-01T16:56:54.647Z,10.90
2022-11-01T16:59:33.750Z,13.40
2022-11-01T17:02:02.468Z,11.10
2022-11-01T17:04:29.770Z,12.50
2022-11-01T17:06:59.846Z,8.07
2022-11-01T17:09:31.283Z,7.65
2022-11-01T17:11:58.438Z,10.63
2022-11-01T17:14:26.487Z,9.43
2022-11-01T17:16:56.651Z,14.00
2022-11-01T17:21:59.680Z,11.95
2022-11-01T17:27:00.637Z,13.38
2022-11-01T17:29:27.490Z,21.25
2022-11-01T17:31:54.187Z,22.42
2022-11-01T17:34:20.937Z,34.80
2022-11-01T17:36:49.588Z,29.80
2022-11-01T17:39:16.606Z,16.70
2022-11-01T17:41:43.798Z,20.77
2022-11-01T17:44:13.747Z,26.58
2022-11-01T17:46:40.510Z,40.33
2022-11-01T17:49:07.546Z,27.90
2022-11-01T17:51:34.220Z,16.25
2022-11-01T17:54:01.174Z,15.77
2022-11-01T17:56:27.825Z,9.30
2022-11-01T17:58:54.688Z,14.95
2022-11-01T18:01:22.008Z,19.98
2022-11-01T18:03:49.552Z,14.07
2022-11-01T18:06:18.878Z,17.73
2022-11-01T18:08:47.735Z,25.58
2022-11-01T18:11:35.163Z,23.23
2022-11-01T18:14:38.489Z,22.75
2022-11-01T18:17:29.259Z,24.55
2022-11-01T18:20:18.106Z,27.63
2022-11-01T18:22:56.597Z,20.30
2022-11-01T18:25:40.768Z,22.55
2022-11-01T18:28:16.742Z,15.18
2022-11-01T18:30:48.970Z,18.10
2022-11-01T18:33:41.628Z,29.50
2022-11-01T18:36:20.040Z,15.02
2022-11-01T18:39:12.728Z,19.88
2022-11-01T18:41:39.603Z,17.08
2022-11-01T18:44:11.238Z,8.02
2022-11-01T18:46:50.096Z,14.13
2022-11-01T18:49:17.077Z,14.53
2022-11-01T18:51:44.577Z,16.27
2022-11-01T18:54:11.351Z,14.38
2022-11-01T18:56:39.880Z,11.35
2022-11-01T18:59:15.321Z,12.68
2022-11-01T19:01:42.372Z,15.60
2022-11-01T19:04:14.477Z,16.45
2022-11-01T19:06:41.154Z,15.73
2022-11-01T19:09:29.116Z,12.43
2022-11-01T19:12:35.539Z,12.88
2022-11-01T19:15:13.651Z,11.63
2022-11-01T19:17:47.987Z,9.77
2022-11-01T19:20:23.591Z,15.18
2022-11-01T19:22:50.347Z,15.00
2022-11-01T19:25:22.830Z,17.77
2022-11-01T19:27:52.866Z,8.57
2022-11-01T19:30:28.616Z,9.05
2022-11-01T19:32:59.548Z,8.65
2022-11-01T19:35:26.589Z,11.07
2022-11-01T19:37:55.094Z,12.32
2022-11-01T19:40:28.039Z,17.90
2022-11-01T19:42:57.331Z,13.93
2022-11-01T19:45:32.628Z,11.85
2022-11-01T19:48:02.228Z,21.50
2022-11-01T19:50:39.943Z,8.48
2022-11-01T19:53:20.681Z,11.43
2022-11-01T19:55:58.355Z,11.00
2022-11-01T19:58:39.358Z,10.40
2022-11-01T20:01:08.774Z,10.13
2022-11-01T20:03:46.065Z,8.55
2022-11-01T20:06:42.997Z,8.43
2022-11-01T20:09:16.597Z,13.70
2022-11-01T20:11:43.490Z,17.35
2022-11-01T20:14:10.327Z,17.55
2022-11-01T20:16:36.956Z,12.05
2022-11-01T20:19:03.773Z,13.00
2022-11-01T20:21:30.429Z,17.42
2022-11-01T20:23:58.698Z,17.83
2022-11-01T20:26:25.638Z,14.18
2022-11-01T20:28:52.329Z,15.65
2022-11-01T20:31:19.593Z,11.15
2022-11-01T20:33:50.676Z,14.75
2022-11-01T20:36:17.431Z,11.60
2022-11-01T20:38:44.669Z,18.35
2022-11-01T20:41:13.055Z,16.85
2022-11-01T20:43:40.081Z,15.27
2022-11-01T20:46:07.782Z,11.25
2022-11-01T20:48:34.538Z,16.88
2022-11-01T20:51:01.437Z,10.43
2022-11-01T20:53:29.903Z,13.70
2022-11-01T20:55:56.874Z,10.90
2022-11-01T20:58:23.530Z,10.30
2022-11-01T21:00:51.626Z,12.63
2022-11-01T21:03:20.933Z,12.73
2022-11-01T21:05:49.377Z,21.55
2022-11-01T21:08:24.047Z,13.90
2022-11-01T21:11:02.316Z,16.70
2022-11-01T21:13:37.074Z,16.52
2022-11-01T21:16:14.066Z,13.32
2022-11-01T21:18:44.489Z,13.10
2022-11-01T21:21:13.955Z,20.10
2022-11-01T21:23:42.971Z,9.02
2022-11-01T21:26:17.489Z,11.50
2022-11-01T21:29:02.811Z,14.82
2022-11-01T21:31:31.130Z,8.57
2022-11-01T21:34:01.801Z,16.27
2022-11-01T21:36:33.245Z,10.85
2022-11-01T21:39:11.307Z,11.70
2022-11-01T21:41:44.349Z,31.55
2022-11-01T21:44:30.846Z,9.93
2022-11-01T21:47:06.565Z,8.63
2022-11-01T21:49:33.694Z,12.73
2022-11-01T21:52:03.646Z,11.50
2022-11-01T21:54:33.999Z,10.00
2022-11-01T21:57:01.356Z,9.18
2022-11-01T21:59:28.815Z,10.95
2022-11-01T22:01:57.101Z,8.52
2022-11-01T22:04:28.503Z,9.43
2022-11-01T22:06:56.751Z,7.55
2022-11-01T22:09:23.464Z,10.43
2022-11-01T22:11:50.067Z,6.15
2022-11-01T22:14:16.621Z,11.27
2022-11-01T22:16:43.546Z,7.93
2022-11-01T22:19:10.869Z,8.07
2022-11-01T22:21:40.431Z,6.22
2022-11-01T22:24:07.629Z,4.28
2022-11-01T22:26:34.758Z,11.55
2022-11-01T22:29:02.193Z,11.55
2022-11-01T22:31:29.126Z,8.88
2022-11-01T22:33:57.185Z,8.98
2022-11-01T22:36:29.646Z,8.45
2022-11-01T22:38:58.822Z,9.55
2022-11-01T22:41:34.178Z,9.98
2022-11-01T22:44:10.001Z,8.23
2022-11-01T22:46:52.350Z,9.38
2022-11-01T22:49:32.645Z,13.40
2022-11-01T22:52:06.932Z,9.95
2022-11-01T22:54:47.473Z,11.60
2022-11-01T22:57:31.581Z,8.90
2022-11-01T23:00:02.179Z,10.45
2022-11-01T23:02:30.218Z,9.30
2022-11-01T23:05:00.018Z,5.90
2022-11-01T23:07:51.637Z,8.68
2022-11-01T23:10:37.940Z,12.05
2022-11-01T23:13:37.069Z,4.43
2022-11-01T23:16:19.963Z,9.70
2022-11-01T23:18:46.580Z,7.93
2022-11-01T23:21:13.233Z,6.93
2022-11-01T23:23:42.776Z,11.15
2022-11-01T23:26:10.324Z,8.75
2022-11-01T23:28:41.800Z,7.38
2022-11-01T23:31:08.394Z,13.98
2022-11-01T23:33:39.932Z,10.90
2022-11-01T23:36:16.250Z,8.63
2022-11-01T23:38:56.563Z,11.07
2022-11-01T23:41:32.352Z,7.30
2022-11-01T23:44:01.515Z,8.75
2022-11-01T23:46:28.206Z,9.75
2022-11-01T23:49:10.597Z,9.27
2022-11-01T23:51:37.332Z,8.50
2022-11-01T23:54:04.203Z,9.05
2022-11-01T23:56:30.775Z,10.05
2022-11-01T23:59:03.821Z,10.82
